Time;durP1;ratioP1;P1;durP2;ratioP2;P2;SDS_P1;SDS_P2;PMS_P1;PMS_P2;Temp;Humidity;BMP_temperature;BMP_pressure;BME280_temperature;BME280_humidity;BME280_pressure;Samples;Min_cycle;Max_cycle;Signal;HPM_P1;HPM_P2
2023/02/03 00:00:56;;;;;;;25.00;8.20;;;;;;;-0.76;82.25;101038.27;106023;1266;22659;-56
2023/02/03 00:03:35;;;;;;;22.40;6.70;;;;;;;-0.77;82.23;101035.85;105991;1273;22545;-59
2023/02/03 00:06:07;;;;;;;25.20;7.70;;;;;;;-0.77;82.28;101033.65;106041;1273;22720;-56
2023/02/03 00:08:39;;;;;;;27.90;8.70;;;;;;;-0.78;82.23;101030.83;106088;1279;22549;-58
2023/02/03 00:11:10;;;;;;;24.00;7.70;;;;;;;-0.78;82.24;101031.77;106122;1273;25378;-56
2023/02/03 00:13:41;;;;;;;25.20;7.90;;;;;;;-0.79;82.27;101033.25;106083;1279;24221;-56
2023/02/03 00:16:12;;;;;;;30.20;9.20;;;;;;;-0.80;82.33;101034.33;106031;1264;22562;-58
2023/02/03 00:18:43;;;;;;;34.80;10.30;;;;;;;-0.81;82.23;101032.30;106008;1279;25813;-59
2023/02/03 00:21:14;;;;;;;33.50;10.00;;;;;;;-0.82;82.32;101032.15;105914;1273;185624;-58
2023/02/03 00:23:45;;;;;;;34.50;11.40;;;;;;;-0.83;82.27;101030.80;106003;1273;24391;-58
2023/02/03 00:26:17;;;;;;;29.30;12.10;;;;;;;-0.85;82.54;101030.15;106032;1273;24300;-60
2023/02/03 00:28:48;;;;;;;34.80;12.30;;;;;;;-0.86;82.47;101022.17;106149;1273;24305;-58
2023/02/03 00:31:22;;;;;;;39.10;13.40;;;;;;;-0.89;82.50;101023.02;106058;1263;22574;-55
2023/02/03 00:33:57;;;;;;;39.70;11.80;;;;;;;-0.90;82.57;101024.26;106021;1279;22719;-58
2023/02/03 00:36:28;;;;;;;28.90;8.90;;;;;;;-0.92;82.66;101029.17;106202;1257;24247;-59
2023/02/03 00:39:00;;;;;;;33.70;8.30;;;;;;;-0.94;82.79;101032.45;105987;1279;25341;-59
2023/02/03 00:41:32;;;;;;;31.80;9.20;;;;;;;-0.97;82.85;101032.27;106099;1278;22549;-58
2023/02/03 00:44:03;;;;;;;31.90;8.70;;;;;;;-0.99;83.03;101028.03;106041;1279;24240;-56
2023/02/03 00:46:35;;;;;;;27.30;7.50;;;;;;;-1.01;83.23;101028.96;106061;1279;22557;-58
2023/02/03 00:49:06;;;;;;;30.40;8.20;;;;;;;-1.01;83.29;101027.08;106183;1264;23173;-56
2023/02/03 00:51:37;;;;;;;32.50;8.50;;;;;;;-1.02;83.21;101024.73;106335;1273;22586;-58
2023/02/03 00:54:09;;;;;;;25.50;7.70;;;;;;;-1.02;83.34;101022.77;106029;1276;25316;-56
2023/02/03 00:56:40;;;;;;;27.60;6.50;;;;;;;-1.02;83.39;101012.37;106048;1276;24260;-58
2023/02/03 00:59:11;;;;;;;26.30;8.10;;;;;;;-1.02;83.36;101009.30;106204;1274;22648;-58
2023/02/03 01:01:42;;;;;;;23.80;6.80;;;;;;;-1.03;83.43;101001.95;106088;1278;24256;-56
2023/02/03 01:04:13;;;;;;;27.30;6.70;;;;;;;-1.03;83.40;101007.65;106029;1274;24261;-57
2023/02/03 01:06:44;;;;;;;24.20;7.40;;;;;;;-1.03;83.47;101003.11;106052;1277;22701;-58
2023/02/03 01:09:15;;;;;;;23.90;7.00;;;;;;;-1.02;83.52;101003.98;106028;1279;22538;-59
2023/02/03 01:11:46;;;;;;;30.20;13.20;;;;;;;-1.02;83.47;101000.45;106173;1263;24330;-58
2023/02/03 01:14:17;;;;;;;29.70;11.70;;;;;;;-1.05;83.57;100998.17;105983;1279;22590;-55
2023/02/03 01:16:48;;;;;;;31.70;12.20;;;;;;;-1.08;83.66;100991.43;106119;1279;22560;-58
2023/02/03 01:19:19;;;;;;;30.20;9.60;;;;;;;-1.10;83.78;100987.34;106054;1279;24402;-58
2023/02/03 01:21:50;;;;;;;32.70;12.50;;;;;;;-1.10;83.84;100989.22;106021;1279;22544;-57
2023/02/03 01:24:21;;;;;;;39.20;15.10;;;;;;;-1.13;83.81;100984.89;106102;1279;24264;-58
2023/02/03 01:26:52;;;;;;;32.30;11.30;;;;;;;-1.14;83.97;100980.19;106044;1279;24402;-59
2023/02/03 01:29:23;;;;;;;27.90;9.10;;;;;;;-1.15;84.07;100975.40;106044;1263;22533;-58
2023/02/03 01:31:54;;;;;;;28.40;8.90;;;;;;;-1.14;84.17;100971.50;106160;1279;22556;-58
2023/02/03 01:34:24;;;;;;;27.80;8.20;;;;;;;-1.13;84.29;100964.92;106008;1273;22557;-58
2023/02/03 01:36:56;;;;;;;26.80;8.00;;;;;;;-1.12;84.24;100961.80;106028;1263;22537;-57
2023/02/03 01:39:27;;;;;;;31.30;9.80;;;;;;;-1.11;84.37;100958.36;106046;1264;22678;-57
2023/02/03 01:41:58;;;;;;;29.40;9.10;;;;;;;-1.10;84.35;100955.02;106275;1273;22536;-59
2023/02/03 01:44:42;;;;;;;30.10;8.60;;;;;;;-1.08;84.35;100955.26;106190;1267;22546;-59
2023/02/03 01:47:26;;;;;;;23.90;8.30;;;;;;;-1.07;84.41;100941.17;106074;1273;27949;-56
2023/02/03 01:50:06;;;;;;;27.70;8.00;;;;;;;-1.05;84.37;100928.02;106116;1279;22541;-55
2023/02/03 01:52:39;;;;;;;27.80;9.70;;;;;;;-1.04;84.39;100922.08;106131;1279;22540;-57
2023/02/03 01:55:17;;;;;;;28.40;9.00;;;;;;;-1.03;84.54;100916.44;106038;1279;25402;-58
2023/02/03 01:57:51;;;;;;;23.30;7.10;;;;;;;-1.02;84.55;100908.38;106045;1276;25561;-58
2023/02/03 02:00:23;;;;;;;29.20;6.60;;;;;;;-1.02;84.56;100902.98;106161;1279;25558;-58
2023/02/03 02:02:58;;;;;;;24.10;7.20;;;;;;;-1.04;84.64;100891.95;106214;1267;22559;-57
2023/02/03 02:05:34;;;;;;;25.50;6.10;;;;;;;-1.04;84.68;100881.83;106157;1274;22534;-58
2023/02/03 02:08:07;;;;;;;18.10;6.10;;;;;;;-1.03;84.67;100874.24;106117;1279;22545;-59
2023/02/03 02:10:38;;;;;;;23.30;6.00;;;;;;;-1.04;84.83;100865.87;106112;1279;24323;-59
2023/02/03 02:13:10;;;;;;;21.80;5.50;;;;;;;-1.06;84.79;100858.17;106096;1279;23154;-58
2023/02/03 02:15:50;;;;;;;24.60;5.50;;;;;;;-1.07;84.98;100849.64;106097;1276;22706;-58
2023/02/03 02:18:32;;;;;;;24.90;5.40;;;;;;;-1.08;85.20;100842.45;106047;1279;22713;-59
2023/02/03 02:21:35;;;;;;;19.70;4.90;;;;;;;-1.06;85.27;100841.35;106027;1279;22583;-58
2023/02/03 02:24:47;;;;;;;25.00;4.90;;;;;;;-1.04;85.20;100841.45;106393;1279;25394;-57
2023/02/03 02:27:45;;;;;;;19.90;4.50;;;;;;;-1.05;85.07;100849.97;105929;1282;22614;-57
2023/02/03 02:30:37;;;;;;;21.00;5.90;;;;;;;-1.05;85.20;100853.33;105965;1282;22649;-57
2023/02/03 02:33:15;;;;;;;22.90;6.00;;;;;;;-1.07;85.17;100857.86;106037;1282;24359;-58
2023/02/03 02:35:57;;;;;;;23.10;7.30;;;;;;;-1.07;85.21;100855.67;106053;1282;25486;-56
2023/02/03 02:38:45;;;;;;;21.50;5.20;;;;;;;-1.05;85.37;100840.25;106041;1275;25446;-59
2023/02/03 02:41:23;;;;;;;24.20;5.20;;;;;;;-1.04;85.39;100839.64;105908;1276;22553;-58
2023/02/03 02:44:01;;;;;;;25.80;5.50;;;;;;;-1.04;85.24;100846.60;106023;1282;22543;-58
2023/02/03 02:46:38;;;;;;;17.80;4.60;;;;;;;-1.04;85.19;100842.77;106105;1278;25521;-58
2023/02/03 02:49:17;;;;;;;23.20;4.80;;;;;;;-1.02;85.36;100831.81;105990;1266;22588;-58
2023/02/03 02:51:50;;;;;;;22.40;7.00;;;;;;;-0.98;85.54;100827.05;105996;1268;22622;-59
2023/02/03 02:54:23;;;;;;;19.60;4.40;;;;;;;-0.96;85.47;100819.84;106085;1280;28147;-56
2023/02/03 02:56:59;;;;;;;20.40;5.40;;;;;;;-0.93;85.59;100809.29;105891;1271;25422;-56
2023/02/03 02:59:30;;;;;;;24.40;6.10;;;;;;;-0.90;85.70;100803.81;105943;1275;26922;-56
2023/02/03 03:02:02;;;;;;;21.70;5.10;;;;;;;-0.91;85.79;100795.36;105985;1282;25858;-58
2023/02/03 03:04:35;;;;;;;20.80;6.20;;;;;;;-0.94;86.06;100784.46;106317;1279;22761;-59
2023/02/03 03:07:08;;;;;;;16.00;4.10;;;;;;;-0.96;86.06;100781.41;106220;1279;23039;-59
2023/02/03 03:09:42;;;;;;;21.20;5.60;;;;;;;-0.96;86.25;100773.56;106253;1276;22537;-59
2023/02/03 03:12:19;;;;;;;17.10;5.50;;;;;;;-0.96;86.37;100767.08;106287;1269;24243;-59
2023/02/03 03:14:54;;;;;;;22.50;6.40;;;;;;;-0.95;86.46;100758.77;106039;1270;24898;-59
2023/02/03 03:17:31;;;;;;;19.50;4.70;;;;;;;-0.96;86.63;100745.16;106068;1279;22886;-59
2023/02/03 03:20:09;;;;;;;23.90;4.40;;;;;;;-0.96;86.70;100735.05;106365;1279;25563;-57
2023/02/03 03:22:46;;;;;;;19.80;4.20;;;;;;;-0.95;86.88;100734.89;106179;1279;22597;-56
2023/02/03 03:25:19;;;;;;;19.20;4.00;;;;;;;-0.96;86.97;100727.85;106000;1273;25493;-59
2023/02/03 03:27:54;;;;;;;22.80;4.80;;;;;;;-0.96;86.97;100726.45;106044;1273;22717;-56
2023/02/03 03:30:29;;;;;;;17.70;3.70;;;;;;;-0.96;87.04;100729.17;106094;1279;22662;-57
2023/02/03 03:33:00;;;;;;;18.60;4.30;;;;;;;-0.97;87.27;100728.15;106238;1267;22549;-59
2023/02/03 03:35:39;;;;;;;17.20;4.60;;;;;;;-0.97;87.31;100725.96;106030;1273;22545;-57
2023/02/03 03:38:17;;;;;;;17.50;4.60;;;;;;;-0.97;87.38;100720.02;106087;1264;22533;-57
2023/02/03 03:40:53;;;;;;;22.90;5.40;;;;;;;-0.98;87.51;100714.07;106232;1273;24239;-58
2023/02/03 03:43:28;;;;;;;20.00;5.20;;;;;;;-0.96;87.54;100710.23;106035;1264;22529;-57
2023/02/03 03:46:06;;;;;;;17.60;4.10;;;;;;;-0.95;87.59;100707.34;106205;1277;24294;-57
2023/02/03 03:48:46;;;;;;;17.90;4.70;;;;;;;-0.93;87.68;100711.25;106254;1273;23000;-56
2023/02/03 03:51:21;;;;;;;16.00;3.90;;;;;;;-0.92;87.74;100717.98;106047;1278;25418;-55
2023/02/03 03:53:57;;;;;;;17.00;3.90;;;;;;;-0.90;87.84;100720.97;106045;1276;22540;-58
2023/02/03 03:56:32;;;;;;;17.70;4.20;;;;;;;-0.89;87.75;100721.43;105969;1273;22565;-58
2023/02/03 03:59:07;;;;;;;20.10;4.90;;;;;;;-0.86;87.81;100716.66;106174;1279;22917;-59
2023/02/03 04:01:39;;;;;;;20.10;4.70;;;;;;;-0.84;87.85;100713.77;106081;1278;24278;-56
2023/02/03 04:04:13;;;;;;;18.00;5.20;;;;;;;-0.83;87.83;100710.94;106067;1278;25365;-57
2023/02/03 04:06:44;;;;;;;17.50;4.20;;;;;;;-0.82;88.04;100705.70;106086;1263;22533;-58
2023/02/03 04:09:16;;;;;;;20.30;5.00;;;;;;;-0.83;88.08;100696.16;106032;1264;24552;-55
2023/02/03 04:12:03;;;;;;;19.10;4.40;;;;;;;-0.83;87.98;100697.79;106045;1278;22544;-58
2023/02/03 04:14:37;;;;;;;19.00;5.30;;;;;;;-0.80;88.16;100696.46;106094;1273;22539;-55
2023/02/03 04:17:08;;;;;;;18.50;5.20;;;;;;;-0.78;88.13;100697.70;106170;1264;22750;-57
2023/02/03 04:19:39;;;;;;;25.40;5.20;;;;;;;-0.77;88.24;100698.73;106134;1279;25466;-57
2023/02/03 04:22:10;;;;;;;22.20;5.90;;;;;;;-0.77;88.19;100702.88;106060;1264;22835;-57
2023/02/03 04:24:41;;;;;;;17.00;5.50;;;;;;;-0.76;88.08;100700.30;106085;1264;25638;-57
2023/02/03 04:27:12;;;;;;;20.00;4.90;;;;;;;-0.74;88.17;100691.98;106071;1264;25430;-56
2023/02/03 04:29:43;;;;;;;14.90;3.30;;;;;;;-0.72;88.22;100684.55;106060;1274;22545;-56
2023/02/03 04:32:14;;;;;;;18.20;3.60;;;;;;;-0.70;88.15;100673.83;106028;1264;22686;-59
2023/02/03 04:34:45;;;;;;;18.10;4.70;;;;;;;-0.69;88.28;100667.71;106127;1279;24241;-57
2023/02/03 04:37:16;;;;;;;20.60;4.90;;;;;;;-0.67;88.23;100662.39;106042;1273;25698;-59
2023/02/03 04:39:46;;;;;;;18.80;4.40;;;;;;;-0.66;88.27;100658.08;106084;1279;22545;-58
2023/02/03 04:42:17;;;;;;;20.00;4.80;;;;;;;-0.63;88.25;100647.56;106114;1279;24506;-57
2023/02/03 04:44:48;;;;;;;16.80;3.50;;;;;;;-0.61;88.15;100645.69;106082;1278;24260;-58
2023/02/03 04:47:19;;;;;;;18.30;4.30;;;;;;;-0.59;88.21;100639.65;106065;1278;25920;-59
2023/02/03 04:49:50;;;;;;;25.20;6.10;;;;;;;-0.58;88.16;100630.56;106103;1279;22888;-58
2023/02/03 04:52:21;;;;;;;18.30;4.80;;;;;;;-0.56;88.21;100626.09;106024;1276;22547;-58
2023/02/03 04:54:52;;;;;;;17.70;4.30;;;;;;;-0.55;88.13;100622.02;106083;1264;22557;-60
2023/02/03 04:57:23;;;;;;;21.80;4.80;;;;;;;-0.54;88.17;100617.64;106035;1273;24249;-60
2023/02/03 04:59:54;;;;;;;18.90;3.80;;;;;;;-0.52;88.15;100616.93;106052;1260;24249;-58
2023/02/03 05:02:24;;;;;;;19.20;2.90;;;;;;;-0.48;88.21;100615.58;106069;1263;22556;-55
2023/02/03 05:04:55;;;;;;;15.00;2.80;;;;;;;-0.46;88.26;100611.02;106074;1279;22549;-58
2023/02/03 05:07:27;;;;;;;15.90;2.80;;;;;;;-0.44;88.30;100604.84;105986;1273;22533;-59
2023/02/03 05:09:57;;;;;;;14.30;2.20;;;;;;;-0.42;88.21;100597.55;106014;1264;24180;-59
2023/02/03 05:12:28;;;;;;;15.80;3.80;;;;;;;-0.41;88.21;100592.77;105944;1276;22994;-59
2023/02/03 05:14:59;;;;;;;16.70;2.50;;;;;;;-0.39;88.24;100587.98;106004;1263;24331;-58
2023/02/03 05:17:30;;;;;;;17.30;3.30;;;;;;;-0.38;88.28;100587.03;106018;1264;22537;-57
2023/02/03 05:20:01;;;;;;;16.00;3.40;;;;;;;-0.38;88.21;100584.05;106001;1276;22593;-57
2023/02/03 05:22:34;;;;;;;14.60;2.70;;;;;;;-0.35;88.27;100583.82;106081;1279;25261;-56
2023/02/03 05:25:06;;;;;;;14.40;2.10;;;;;;;-0.33;88.24;100579.96;106113;1279;22530;-58
2023/02/03 05:27:37;;;;;;;11.50;2.50;;;;;;;-0.32;88.24;100572.04;106140;1272;24275;-57
2023/02/03 05:30:11;;;;;;;15.00;2.40;;;;;;;-0.31;88.14;100563.66;106080;1264;23194;-63
2023/02/03 05:32:42;;;;;;;14.20;2.60;;;;;;;-0.30;88.26;100557.61;106251;1276;24257;-56
2023/02/03 05:35:13;;;;;;;12.60;2.20;;;;;;;-0.29;88.16;100558.32;106074;1273;22530;-59
2023/02/03 05:37:45;;;;;;;13.60;2.80;;;;;;;-0.28;88.14;100550.30;106173;1279;22753;-57
2023/02/03 05:43:06;;;;;;;13.80;2.50;;;;;;;-0.25;88.30;100551.95;106082;1273;24266;-58
2023/02/03 05:45:37;;;;;;;11.50;2.50;;;;;;;-0.22;88.34;100546.21;106150;1274;24283;-58
2023/02/03 05:48:08;;;;;;;11.00;2.40;;;;;;;-0.19;88.33;100546.74;106115;1271;24409;-58
2023/02/03 05:50:39;;;;;;;12.00;3.00;;;;;;;-0.17;88.31;100547.06;106138;1276;22588;-59
2023/02/03 05:53:10;;;;;;;13.20;2.00;;;;;;;-0.14;88.43;100545.09;106292;1273;22624;-57
2023/02/03 05:55:41;;;;;;;14.00;2.50;;;;;;;-0.12;88.78;100538.79;105971;1279;22546;-58
2023/02/03 05:58:12;;;;;;;10.70;2.70;;;;;;;-0.12;89.04;100540.13;106051;1273;24680;-59
2023/02/03 06:00:43;;;;;;;19.10;3.20;;;;;;;-0.10;89.25;100527.89;106270;1267;22833;-61
2023/02/03 06:03:14;;;;;;;18.40;4.30;;;;;;;-0.10;89.48;100519.41;106021;1267;22659;-59
2023/02/03 06:05:45;;;;;;;16.20;3.50;;;;;;;-0.09;89.72;100512.28;106043;1279;23522;-59
2023/02/03 06:08:16;;;;;;;21.00;4.70;;;;;;;-0.09;89.76;100512.98;106120;1264;22559;-59
2023/02/03 06:10:47;;;;;;;17.40;4.20;;;;;;;-0.08;89.86;100507.72;106142;1279;22583;-60
2023/02/03 06:13:18;;;;;;;19.50;4.50;;;;;;;-0.07;90.12;100504.11;106080;1273;24201;-59
2023/02/03 06:15:49;;;;;;;15.20;4.00;;;;;;;-0.08;90.41;100493.30;106086;1276;25495;-58
2023/02/03 06:18:21;;;;;;;17.80;4.20;;;;;;;-0.08;90.55;100490.86;106123;1279;22676;-60
2023/02/03 06:20:52;;;;;;;15.20;4.50;;;;;;;-0.07;90.72;100483.95;106095;1273;26599;-60
2023/02/03 06:23:23;;;;;;;18.60;5.10;;;;;;;-0.06;90.85;100479.02;106112;1278;24223;-61
2023/02/03 06:25:54;;;;;;;17.10;4.70;;;;;;;-0.04;91.09;100473.97;106088;1279;25353;-61
2023/02/03 06:28:25;;;;;;;19.40;5.50;;;;;;;-0.03;91.19;100468.41;106118;1274;22548;-61
2023/02/03 06:30:56;;;;;;;23.40;5.50;;;;;;;-0.03;91.30;100459.71;106084;1277;24278;-61
2023/02/03 06:33:27;;;;;;;14.20;5.00;;;;;;;-0.02;91.45;100456.64;106098;1278;24290;-60
2023/02/03 06:35:57;;;;;;;17.40;4.00;;;;;;;-0.01;91.49;100455.55;106093;1279;22537;-60
2023/02/03 06:38:28;;;;;;;20.10;5.30;;;;;;;0.00;91.68;100448.09;106093;1264;25430;-60
2023/02/03 06:40:59;;;;;;;19.30;4.30;;;;;;;0.01;91.76;100443.23;106154;1279;22540;-60
2023/02/03 06:43:30;;;;;;;17.40;5.30;;;;;;;0.02;92.03;100439.21;106074;1263;27021;-60
2023/02/03 06:46:01;;;;;;;15.80;4.50;;;;;;;0.01;92.11;100436.31;106225;1264;22527;-59
2023/02/03 06:48:32;;;;;;;24.30;5.90;;;;;;;0.02;92.22;100427.23;106114;1273;26027;-59
2023/02/03 06:51:04;;;;;;;18.80;5.20;;;;;;;0.03;92.23;100424.46;106106;1264;24281;-61
2023/02/03 06:53:35;;;;;;;21.40;5.70;;;;;;;0.04;92.52;100409.80;106213;1264;24231;-61
2023/02/03 06:56:06;;;;;;;18.50;6.40;;;;;;;0.04;92.65;100394.89;106113;1279;26522;-60
2023/02/03 06:58:37;;;;;;;19.50;6.00;;;;;;;0.04;92.89;100384.22;106247;1279;22558;-60
2023/02/03 07:01:08;;;;;;;18.60;5.20;;;;;;;0.05;93.12;100375.05;106102;1279;25467;-62
2023/02/03 07:03:39;;;;;;;18.50;5.50;;;;;;;0.07;93.06;100364.03;106113;1277;24318;-60
2023/02/03 07:06:10;;;;;;;16.80;5.60;;;;;;;0.09;93.18;100359.09;106108;1273;22567;-60
2023/02/03 07:08:41;;;;;;;20.60;5.70;;;;;;;0.10;93.38;100356.80;106056;1267;22540;-60
2023/02/03 07:11:12;;;;;;;19.10;5.50;;;;;;;0.12;93.49;100347.92;106188;1264;22539;-61
2023/02/03 07:13:43;;;;;;;17.10;4.50;;;;;;;0.15;93.68;100339.42;106090;1279;24258;-60
2023/02/03 07:16:15;;;;;;;20.50;6.10;;;;;;;0.16;93.87;100334.87;106117;1276;22669;-60
2023/02/03 07:18:46;;;;;;;15.10;4.90;;;;;;;0.18;93.92;100333.98;106121;1276;25366;-59
2023/02/03 07:21:18;;;;;;;14.50;4.40;;;;;;;0.21;94.02;100330.43;106129;1279;22660;-59
2023/02/03 07:23:50;;;;;;;15.80;3.70;;;;;;;0.23;93.92;100324.37;106133;1273;22549;-60
2023/02/03 07:26:21;;;;;;;9.60;3.10;;;;;;;0.25;94.11;100314.70;106152;1267;22997;-61
2023/02/03 07:28:53;;;;;;;12.20;3.00;;;;;;;0.27;94.19;100302.12;106130;1274;24277;-60
2023/02/03 07:31:24;;;;;;;9.10;2.30;;;;;;;0.29;94.29;100290.88;106130;1279;25481;-60
2023/02/03 07:33:55;;;;;;;11.50;2.60;;;;;;;0.32;94.38;100280.89;106114;1276;22557;-60
2023/02/03 07:36:26;;;;;;;13.40;2.30;;;;;;;0.33;94.21;100272.64;106119;1278;24227;-60
2023/02/03 07:38:58;;;;;;;11.00;2.50;;;;;;;0.34;94.57;100274.50;106144;1273;25473;-61
2023/02/03 07:41:38;;;;;;;11.50;2.30;;;;;;;0.36;94.44;100268.84;106110;1264;22686;-60
2023/02/03 07:44:10;;;;;;;8.70;2.00;;;;;;;0.38;94.58;100259.65;106167;1279;22533;-61
2023/02/03 07:46:43;;;;;;;7.10;2.00;;;;;;;0.39;94.62;100256.19;106116;1279;22542;-60
2023/02/03 07:49:15;;;;;;;10.10;1.90;;;;;;;0.39;94.74;100247.55;106172;1279;25537;-59
2023/02/03 07:51:46;;;;;;;9.90;2.20;;;;;;;0.39;94.91;100237.66;106098;1273;22547;-60
2023/02/03 07:54:17;;;;;;;9.20;2.00;;;;;;;0.41;94.84;100230.66;106132;1279;22526;-62
2023/02/03 07:56:48;;;;;;;8.00;1.70;;;;;;;0.41;94.91;100216.68;106432;1276;22530;-60
2023/02/03 08:23:57;;;;;;;8.60;1.90;;;;;;;0.45;95.77;100150.89;106488;1261;25482;-59
2023/02/03 08:38:37;;;;;;;7.60;1.50;;;;;;;0.52;95.81;100112.80;106494;1266;22654;-60
2023/02/03 08:41:12;;;;;;;9.40;1.90;;;;;;;0.54;95.88;100105.00;106482;1276;25579;-60
2023/02/03 08:43:43;;;;;;;9.20;2.20;;;;;;;0.55;95.86;100103.66;106582;1276;22656;-62
2023/02/03 08:46:14;;;;;;;9.90;2.20;;;;;;;0.57;95.85;100095.39;106484;1269;22526;-59
2023/02/03 08:48:45;;;;;;;10.20;2.40;;;;;;;0.60;95.96;100096.44;106493;1270;26226;-61
2023/02/03 08:51:18;;;;;;;12.10;3.00;;;;;;;0.63;95.88;100089.64;106558;1262;25509;-62
2023/02/03 08:53:49;;;;;;;10.10;2.40;;;;;;;0.65;95.97;100086.79;106480;1253;25494;-62
2023/02/03 08:56:20;;;;;;;12.80;2.50;;;;;;;0.68;95.93;100083.52;106488;1270;25596;-59
2023/02/03 08:58:50;;;;;;;12.10;2.40;;;;;;;0.70;96.01;100084.90;106530;1276;24391;-62
2023/02/03 09:01:21;;;;;;;11.70;2.70;;;;;;;0.73;95.96;100067.89;106509;1255;25514;-59
2023/02/03 09:03:52;;;;;;;13.90;2.90;;;;;;;0.77;95.98;100056.92;106481;1271;22834;-61
2023/02/03 09:06:23;;;;;;;10.20;2.00;;;;;;;0.79;96.11;100034.05;106518;1261;22539;-60
2023/02/03 09:08:54;;;;;;;13.90;3.10;;;;;;;0.80;96.13;100021.39;106357;1271;25564;-62
2023/02/03 09:11:26;;;;;;;11.40;3.30;;;;;;;0.81;96.21;100037.70;106687;1270;22575;-60
2023/02/03 09:13:56;;;;;;;10.20;2.70;;;;;;;0.85;96.28;100036.23;106487;1276;24276;-60
2023/02/03 09:16:29;;;;;;;10.60;2.40;;;;;;;0.88;96.37;100031.94;106465;1268;24333;-61
2023/02/03 09:19:00;;;;;;;9.00;2.50;;;;;;;0.92;96.43;100025.28;106629;1271;22520;-60
2023/02/03 09:21:31;;;;;;;12.00;2.30;;;;;;;0.96;96.53;100022.92;106464;1273;22516;-60
2023/02/03 09:24:03;;;;;;;10.10;2.30;;;;;;;0.99;96.39;100009.38;106500;1274;22539;-60
2023/02/03 09:26:34;;;;;;;10.10;2.60;;;;;;;1.00;96.36;100000.86;106695;1275;24236;-60
2023/02/03 09:29:06;;;;;;;11.90;2.70;;;;;;;1.01;96.37;99992.84;106536;1276;24573;-59
2023/02/03 09:31:36;;;;;;;10.30;2.50;;;;;;;1.03;96.39;99984.00;106550;1276;23530;-62
2023/02/03 09:34:07;;;;;;;11.90;2.50;;;;;;;1.06;96.41;99983.16;106494;1262;22523;-63
2023/02/03 09:36:38;;;;;;;14.20;3.00;;;;;;;1.06;96.53;99985.05;106515;1268;22530;-62
2023/02/03 09:39:09;;;;;;;11.90;2.20;;;;;;;1.06;96.49;99977.11;106512;1271;25311;-61
2023/02/03 09:41:59;;;;;;;13.20;2.90;;;;;;;1.07;96.44;99972.45;106521;1268;22571;-61
2023/02/03 09:44:37;;;;;;;12.70;2.90;;;;;;;1.10;96.54;99963.61;106572;1264;24268;-63
2023/02/03 09:47:15;;;;;;;12.10;2.80;;;;;;;1.12;96.53;99955.64;106581;1259;22615;-61
2023/02/03 09:49:50;;;;;;;15.00;3.30;;;;;;;1.14;96.60;99941.31;106695;1276;22538;-61
2023/02/03 09:52:24;;;;;;;13.50;2.60;;;;;;;1.13;96.58;99937.47;106562;1275;22546;-62
2023/02/03 09:55:01;;;;;;;12.70;2.70;;;;;;;1.13;96.68;99924.75;106590;1271;22539;-63
2023/02/03 09:57:37;;;;;;;14.60;3.40;;;;;;;1.12;96.67;99918.72;106687;1268;22529;-62
2023/02/03 10:00:19;;;;;;;17.10;3.80;;;;;;;1.13;96.66;99909.90;106709;1267;22659;-62
2023/02/03 10:02:59;;;;;;;12.30;3.50;;;;;;;1.16;96.83;99911.27;106685;1268;22527;-63
2023/02/03 10:05:55;;;;;;;13.30;4.20;;;;;;;1.18;96.87;99906.09;106534;1275;23265;-62
2023/02/03 10:08:48;;;;;;;13.80;3.90;;;;;;;1.20;96.97;99904.73;106646;1259;22550;-64
2023/02/03 10:11:28;;;;;;;22.90;5.50;;;;;;;1.19;96.94;99896.27;106581;1268;25384;-63
2023/02/03 10:14:11;;;;;;;17.70;4.80;;;;;;;1.20;97.03;99874.64;106592;1276;24254;-63
2023/02/03 10:16:55;;;;;;;20.70;5.70;;;;;;;1.20;97.10;99869.69;106575;1276;22611;-64
2023/02/03 10:19:37;;;;;;;18.40;5.90;;;;;;;1.20;97.06;99856.87;106849;1268;22529;-64
2023/02/03 10:22:15;;;;;;;17.20;4.60;;;;;;;1.23;97.20;99846.20;106516;1260;24259;-63
2023/02/03 10:24:52;;;;;;;16.10;4.70;;;;;;;1.26;97.40;99836.73;106575;1274;24264;-63
2023/02/03 10:27:24;;;;;;;15.20;4.60;;;;;;;1.28;97.41;99826.48;106623;1268;23030;-62
2023/02/03 10:30:03;;;;;;;15.10;4.00;;;;;;;1.30;97.54;99816.52;106591;1276;22532;-62
2023/02/03 10:32:36;;;;;;;16.30;3.50;;;;;;;1.32;97.74;99813.80;106511;1257;24272;-62
2023/02/03 10:35:14;;;;;;;12.00;2.90;;;;;;;1.34;97.82;99800.80;106572;1268;24339;-62
2023/02/03 10:37:48;;;;;;;12.00;3.00;;;;;;;1.37;97.98;99796.87;106626;1276;22532;-64
2023/02/03 10:40:20;;;;;;;13.70;3.10;;;;;;;1.40;98.16;99786.73;106527;1276;22642;-62
2023/02/03 10:45:41;;;;;;;13.70;3.30;;;;;;;1.46;98.14;99759.59;106554;1271;22529;-63
2023/02/03 10:48:18;;;;;;;19.20;4.60;;;;;;;1.47;98.32;99746.66;106560;1261;22627;-64
2023/02/03 10:50:52;;;;;;;22.00;6.70;;;;;;;1.49;98.31;99738.92;106569;1268;22611;-63
2023/02/03 10:53:26;;;;;;;25.10;7.90;;;;;;;1.51;98.37;99726.21;106635;1262;22533;-64
2023/02/03 10:56:07;;;;;;;23.10;7.20;;;;;;;1.52;98.34;99714.16;106553;1276;22546;-63
2023/02/03 10:58:46;;;;;;;14.80;5.00;;;;;;;1.55;98.38;99703.87;106533;1275;24245;-62
2023/02/03 11:01:19;;;;;;;17.30;5.00;;;;;;;1.56;98.43;99694.94;106534;1268;22597;-63
2023/02/03 11:04:00;;;;;;;13.50;3.40;;;;;;;1.59;98.57;99687.74;106636;1276;24395;-63
2023/02/03 11:06:33;;;;;;;16.70;3.70;;;;;;;1.61;98.75;99675.10;106606;1271;22491;-62
2023/02/03 11:09:21;;;;;;;11.00;3.10;;;;;;;1.64;98.74;99674.41;106564;1274;22608;-63
2023/02/03 11:12:06;;;;;;;12.00;3.00;;;;;;;1.65;98.78;99669.33;106684;1268;23019;-63
2023/02/03 11:14:41;;;;;;;12.00;3.40;;;;;;;1.68;98.77;99660.32;106567;1276;24074;-64
2023/02/03 11:17:18;;;;;;;13.50;3.50;;;;;;;1.69;98.67;99654.08;106643;1272;23030;-63
2023/02/03 11:19:50;;;;;;;12.90;2.80;;;;;;;1.70;98.65;99647.60;106691;1276;24401;-62
2023/02/03 11:22:35;;;;;;;13.80;2.80;;;;;;;1.72;98.81;99638.13;106671;1272;22582;-63
2023/02/03 11:25:16;;;;;;;11.40;2.60;;;;;;;1.73;98.91;99627.00;106592;1268;22549;-63
2023/02/03 11:27:48;;;;;;;12.70;3.00;;;;;;;1.75;99.07;99611.23;106538;1269;22530;-61
2023/02/03 11:30:24;;;;;;;13.10;3.00;;;;;;;1.76;99.13;99600.67;106572;1267;25400;-63
2023/02/03 11:32:56;;;;;;;13.80;3.20;;;;;;;1.78;99.15;99595.25;106638;1271;22535;-63
2023/02/03 11:35:32;;;;;;;12.20;3.60;;;;;;;1.80;99.14;99589.30;106591;1268;25302;-63
2023/02/03 11:38:03;;;;;;;12.40;3.00;;;;;;;1.82;99.25;99584.84;106602;1275;22610;-62
2023/02/03 11:40:37;;;;;;;12.40;2.80;;;;;;;1.83;99.23;99577.48;106795;1275;25309;-64
2023/02/03 11:43:18;;;;;;;15.50;3.70;;;;;;;1.84;99.28;99571.17;106588;1275;22542;-62
2023/02/03 11:45:51;;;;;;;13.00;3.50;;;;;;;1.87;99.33;99561.90;106640;1268;25619;-63
2023/02/03 11:48:31;;;;;;;15.50;4.00;;;;;;;1.88;99.46;99551.80;106769;1274;23163;-62
2023/02/03 11:51:14;;;;;;;15.90;3.20;;;;;;;1.90;99.39;99552.52;106735;1267;22561;-61
2023/02/03 11:53:59;;;;;;;13.60;2.80;;;;;;;1.92;99.51;99543.89;106618;1274;22529;-64
2023/02/03 11:57:00;;;;;;;12.60;3.20;;;;;;;1.95;99.52;99539.73;106690;1258;24274;-61
2023/02/03 11:59:48;;;;;;;11.20;3.20;;;;;;;1.96;99.60;99529.39;106798;1260;22526;-62
2023/02/03 12:02:48;;;;;;;11.70;2.70;;;;;;;1.98;99.68;99525.31;106738;1269;22798;-62
2023/02/03 12:05:47;;;;;;;11.80;2.30;;;;;;;2.00;99.67;99511.27;106717;1268;25431;-62
2023/02/03 12:08:31;;;;;;;15.20;2.80;;;;;;;2.02;99.78;99506.09;106311;1267;22704;-62
2023/02/03 12:11:11;;;;;;;12.30;2.30;;;;;;;2.04;99.88;99496.89;106097;1267;24258;-61
2023/02/03 12:14:02;;;;;;;13.00;2.90;;;;;;;2.07;99.90;99488.69;106308;1274;25387;-62
2023/02/03 12:16:59;;;;;;;13.10;2.90;;;;;;;2.10;99.85;99488.85;106295;1277;24299;-62
2023/02/03 12:19:43;;;;;;;13.70;2.80;;;;;;;2.12;99.98;99487.60;106435;1264;25350;-63
2023/02/03 12:22:21;;;;;;;13.60;2.90;;;;;;;2.13;100.00;99480.98;105877;1281;184283;-61
2023/02/03 12:25:03;;;;;;;13.10;2.60;;;;;;;2.14;99.98;99481.17;106082;1281;22544;-64
2023/02/03 12:27:50;;;;;;;13.80;2.60;;;;;;;2.15;99.94;99477.52;106198;1279;23031;-61
2023/02/03 12:30:25;;;;;;;13.70;2.70;;;;;;;2.17;100.00;99466.05;106086;1280;24325;-62